Arboledas, Argentina
Current Conditions -  °F | °C
As of 5:00 PM on Wednesday 28 Jan 2015 (Local Time) from SAEZ Reporting Station
Broken Clouds Broken Clouds  
Wind Chill: 70°   Ceiling: 7000
Heat Index: 70°   Visibility: 6mi
Dew Point: 64°   Wind: 12mph
Humidity: 83%   Direction: 160°SSE
Pressure: 29.83"   Gusts: NA
Location:  36.49°S, 61.45°W
Report Text: SAEZ 282000Z 16010KT 9999 SCT025 BKN070 21/18 Q1010
Loading
Personal Weather Stations






























Interactive Weather Map New forecast layout! Learn more

10-Day Weather Forecast

Advertisements
Track Severe Weather on mobile